PST,Max TemperatureF,Mean TemperatureF,Min TemperatureF,Max Dew PointF,MeanDew PointF,Min DewpointF,Max Humidity, Mean Humidity, Min Humidity, Max Sea Level PressureIn, Mean Sea Level PressureIn, Min Sea Level PressureIn, Max VisibilityMiles, Mean VisibilityMiles, Min VisibilityMiles, Max Wind SpeedMPH, Mean Wind SpeedMPH, Max Gust SpeedMPH,PrecipitationIn, CloudCover, Events, WindDirDegrees
2012-1-1,54,48,41,36,31,27,79,59,38,30.30,30.19,30.06,10,10,10,13,3,17,0.00,4,,47
2012-1-2,50,44,37,46,38,29,93,77,60,30.25,30.03,29.90,10,9,4,23,5,40,0.48,5,Rain,163
2012-1-3,54,48,42,48,44,39,96,84,72,30.30,30.24,30.17,10,10,10,9,5,,0.03,6,Rain,144
2012-1-4,53,48,42,49,45,40,100,90,64,30.19,30.11,30.03,10,8,2,17,8,28,0.65,6,Rain,158
2012-1-5,48,42,37,43,38,34,89,78,71,30.38,30.31,30.18,10,10,8,18,11,33,0.08,4,Rain,172
2012-1-6,41,39,37,36,35,34,93,86,76,30.37,30.32,30.29,10,10,9,8,6,,0.04,8,Rain,154
2012-1-7,46,42,37,40,38,36,100,89,73,30.46,30.41,30.35,10,10,9,9,3,,0.00,7,Rain,146
2012-1-8,48,44,39,41,39,37,93,84,68,30.39,30.31,30.23,10,10,10,13,7,,0.00,6,,138
2012-1-9,50,46,43,44,41,37,89,80,71,30.29,30.25,30.22,10,10,6,16,6,24,0.17,7,Rain,147
2012-1-10,44,40,35,36,32,29,89,72,58,30.54,30.46,30.30,10,10,9,7,3,,0.06,5,Rain,349
2012-1-11,45,38,27,30,27,23,92,68,46,30.53,30.46,30.38,10,10,10,7,2,,0.00,1,,348
2012-1-12,44,36,27,30,27,23,89,70,43,30.41,30.34,30.30,10,10,10,6,2,,0.00,2,,309
2012-1-13,41,34,27,33,29,25,92,82,70,30.32,30.22,30.06,10,10,10,7,2,,0.00,1,,144
2012-1-14,42,38,35,39,33,28,93,82,68,30.04,29.96,29.90,10,9,3,20,7,25,0.13,7,Rain,181
2012-1-15,36,30,24,33,30,24,100,92,78,30.12,30.02,29.99,10,5,0,9,4,,0.23,7,Fog-Snow,140
2012-1-16,36,32,28,34,30,26,100,90,79,30.13,30.07,29.96,10,9,5,15,9,25,0.07,8,Rain-Snow,161
2012-1-17,37,35,33,34,30,22,93,82,61,29.98,29.89,29.81,10,10,5,18,9,24,0.09,7,Rain,205
2012-1-18,33,30,28,29,27,22,96,91,64,29.98,29.75,29.64,10,3,0,9,6,,0.44,8,Fog-Rain-Snow,352
2012-1-19,30,29,28,27,26,24,93,89,85,29.81,29.70,29.59,10,6,2,9,4,,0.32,8,Rain-Snow,357
2012-1-20,39,34,30,38,33,28,100,97,92,29.77,29.52,29.05,10,4,2,9,2,,0.39,8,Rain,155
2012-1-21,46,42,37,40,36,33,97,79,73,29.91,29.50,29.03,10,10,8,24,13,44,0.06,5,Rain,182
2012-1-22,44,38,33,41,36,30,93,82,70,29.88,29.66,29.45,10,9,4,15,6,23,0.29,6,Rain,149
2012-1-23,48,40,33,37,33,30,96,77,59,30.04,29.97,29.85,10,10,10,12,6,,0.00,2,,147
2012-1-24,52,44,36,48,40,31,100,86,66,30.01,29.82,29.66,10,8,3,20,7,38,0.24,7,Rain,158
2012-1-25,48,45,42,42,38,34,93,76,61,30.27,30.16,29.96,10,10,6,15,10,31,0.40,6,Rain,183
2012-1-26,48,40,32,45,37,31,100,82,63,30.61,30.26,29.94,10,10,7,17,9,28,0.31,5,Rain,142
2012-1-27,44,36,28,32,29,27,96,81,53,30.64,30.58,30.51,10,10,7,6,2,,0.00,1,,139
2012-1-28,45,39,33,32,30,29,89,72,55,30.51,30.35,30.11,10,10,7,9,4,,0.00,6,,137
2012-1-29,50,44,39,47,44,31,97,88,73,30.07,29.90,29.78,10,8,4,14,7,23,0.67,7,Rain,173
2012-1-30,50,47,44,46,41,39,97,82,68,30.08,30.00,29.85,10,10,6,14,6,22,0.11,7,Rain,179
2012-1-31,50,47,42,42,39,37,93,75,61,30.07,30.02,29.89,10,10,10,13,8,23,0.04,7,Rain,161